Hikarimaru No.17 — JD2956 — position and weather

sailwx.info

Track history (hours):
 
Tides and Currents Weather Stations Pressure Air Temp Water Temp Dewpoint Dewpoint Depression Visibility Wind Speed Wind Dir Waves Ship Positions

Hikarimaru No.17

Last reported at 2015-Feb-28 15:31 UTC. Time now 2015-Feb-28 16:00 UTC.
Position N 34°10' E 135°08'.

Length 105 m; draft 5.5 m.

Type: Tanker. MMSI: 431000984.

Date/timePositionNaut miles runAvg speedWind from/ knotsBaromVisibWave heightAir tempDewpointWater temp
2015-Feb-28 15:31N 34°10' E 135°08'0 0.0
2015-Feb-28 14:28N 34°10' E 135°08'0 0.0
2015-Feb-28 13:31N 34°10' E 135°08'0 0.0
2015-Feb-28 12:31N 34°10' E 135°08'0 0.0
2015-Feb-28 11:31N 34°10' E 135°08'0 0.1
2015-Feb-28 10:31N 34°10' E 135°08'0 0.0
2015-Feb-28 09:31N 34°10' E 135°08'0 0.0
2015-Feb-28 08:31N 34°10' E 135°08'0 0.0
2015-Feb-28 07:31N 34°10' E 135°08'0 0.0
2015-Feb-28 06:31N 34°10' E 135°08'0 0.0
2015-Feb-28 05:31N 34°10' E 135°08'1 1.2
2015-Feb-28 04:34N 34°09' E 135°07'7 1.0
2015-Feb-27 21:33N 34°03' E 135°03'8 7.5
2015-Feb-27 20:31N 34°09' E 135°08'0 0.0
2015-Feb-27 19:31N 34°09' E 135°08'0 0.0
2015-Feb-27 18:31N 34°09' E 135°08'0 0.0
2015-Feb-27 17:31N 34°09' E 135°08'0 0.0
2015-Feb-27 16:28N 34°09' E 135°08'0 0.0
2015-Feb-27 15:31N 34°09' E 135°08'0 0.0
2015-Feb-27 14:31N 34°09' E 135°08'0 0.0
2015-Feb-27 13:31N 34°09' E 135°08'0 0.0
2015-Feb-27 12:28N 34°09' E 135°08'0 0.0
2015-Feb-27 11:31N 34°09' E 135°08'0 0.0
2015-Feb-27 10:31N 34°09' E 135°08'0 0.0
2015-Feb-27 09:31N 34°09' E 135°08'0 0.1
2015-Feb-27 08:31N 34°09' E 135°08'0 0.0
2015-Feb-27 07:28N 34°09' E 135°08'0 0.0
2015-Feb-27 06:34N 34°09' E 135°08'0 0.0
2015-Feb-27 05:31N 34°09' E 135°08'0 0.0
2015-Feb-27 04:31N 34°09' E 135°08'0 0.0
2015-Feb-27 03:31N 34°09' E 135°08'0 0.0
2015-Feb-27 02:31N 34°09' E 135°08'2 2.3
2015-Feb-27 01:34N 34°07' E 135°07'0 0.0
2015-Feb-27 00:34N 34°07' E 135°07'0 0.0
2015-Feb-26 23:33N 34°07' E 135°07'0 0.0
2015-Feb-26 22:33N 34°07' E 135°07'0 0.0
2015-Feb-26 21:32N 34°07' E 135°07'3 2.6
2015-Feb-26 20:33N 34°10' E 135°08'0 0.0
2015-Feb-26 19:33N 34°10' E 135°08'0 0.1
2015-Feb-26 18:33N 34°10' E 135°08'0 0.0
2015-Feb-26 17:33N 34°10' E 135°08'0 0.0
2015-Feb-26 16:33N 34°10' E 135°08'0 0.1
2015-Feb-26 15:33N 34°10' E 135°08'0 0.0
2015-Feb-26 14:33N 34°10' E 135°08'0 0.1
2015-Feb-26 13:33N 34°10' E 135°08'0 0.0
2015-Feb-26 12:33N 34°10' E 135°08'0 0.0
2015-Feb-26 11:33N 34°10' E 135°08'0 0.0
2015-Feb-26 10:33N 34°10' E 135°08'0 0.0
2015-Feb-26 09:33N 34°10' E 135°08'3 2.7
2015-Feb-26 08:33N 34°11' E 135°05'1212.0
2015-Feb-26 07:33N 34°22' E 134°59'1313.0
2015-Feb-26 06:33N 34°34' E 135°03'11 0.8
2015-Feb-25 16:15N 34°38' E 134°50'1014.5
2015-Feb-25 15:33N 34°37' E 135°02'1313.3
2015-Feb-25 14:33N 34°34' E 135°18'6 6.0
2015-Feb-25 13:33N 34°32' E 135°25'0 0.0
2015-Feb-25 12:33N 34°32' E 135°25'0 0.0
2015-Feb-25 11:33N 34°32' E 135°25'0 0.0
2015-Feb-25 10:33N 34°32' E 135°25'0 0.0
2015-Feb-25 09:33N 34°32' E 135°25'0 0.0
2015-Feb-25 08:33N 34°32' E 135°25'0 0.0
2015-Feb-25 07:33N 34°32' E 135°25'4 4.4
2015-Feb-25 06:33N 34°32' E 135°20'6 6.2
2015-Feb-25 05:33N 34°29' E 135°13'1311.6
2015-Feb-25 04:25N 34°20' E 135°02'1112.6
2015-Feb-25 03:34N 34°10' E 134°58'8 1.2
2015-Feb-24 20:33N 34°02' E 135°03'7 7.0
2015-Feb-24 19:31N 34°09' E 135°07'0 0.1
2015-Feb-24 18:31N 34°09' E 135°07'0 0.1
2015-Feb-24 17:31N 34°09' E 135°07'0 0.1
2015-Feb-24 16:31N 34°09' E 135°07'0 0.0
2015-Feb-24 15:31N 34°09' E 135°07'0 0.1
2015-Feb-24 14:31N 34°09' E 135°07'0 0.0
2015-Feb-24 13:31N 34°09' E 135°07'0 0.0
2015-Feb-24 12:31N 34°09' E 135°07'0 0.0
2015-Feb-24 11:31N 34°09' E 135°07'0 0.0
2015-Feb-24 10:28N 34°09' E 135°07'0 0.1
2015-Feb-24 09:31N 34°09' E 135°07'1 0.3
2015-Feb-24 04:34N 34°07' E 135°07'6 0.8
2015-Feb-23 21:32N 34°03' E 135°03'7 6.9
2015-Feb-23 20:32N 34°09' E 135°07'0 0.0
2015-Feb-23 19:32N 34°09' E 135°07'0 0.0
2015-Feb-23 18:32N 34°09' E 135°07'0 0.0
2015-Feb-23 17:32N 34°09' E 135°07'0 0.0
2015-Feb-23 16:32N 34°09' E 135°07'0 0.0
2015-Feb-23 15:29N 34°09' E 135°07'0 0.0
2015-Feb-23 14:29N 34°09' E 135°07'0 0.0
2015-Feb-23 13:32N 34°09' E 135°07'0 0.0
2015-Feb-23 12:32N 34°09' E 135°07'0 0.0
2015-Feb-23 11:32N 34°09' E 135°07'0 0.1
2015-Feb-23 10:32N 34°09' E 135°07'0 0.0
2015-Feb-23 09:32N 34°09' E 135°07'1 0.2
2015-Feb-23 04:33N 34°08' E 135°07'5 0.7
2015-Feb-22 21:32N 34°04' E 135°03'7 7.3
2015-Feb-22 20:31N 34°09' E 135°09'0 0.0
2015-Feb-22 19:31N 34°09' E 135°09'0 0.0
2015-Feb-22 18:31N 34°09' E 135°09'0 0.0
2015-Feb-22 17:25N 34°09' E 135°09'0 0.0
2015-Feb-22 16:28N 34°10' E 135°09'0 0.0
2015-Feb-22 15:31N 34°10' E 135°09'0 0.1
2015-Feb-22 14:31N 34°10' E 135°09'0 0.1
2015-Feb-22 13:31N 34°10' E 135°09'0 0.0
2015-Feb-22 12:31N 34°10' E 135°09'0 0.0
2015-Feb-22 11:31N 34°10' E 135°09'0 0.0
2015-Feb-22 10:31N 34°10' E 135°09'0 0.0
2015-Feb-22 09:33N 34°10' E 135°09'0 0.0
2015-Feb-22 08:31N 34°10' E 135°09'0 0.0
2015-Feb-22 07:31N 34°10' E 135°09'0 0.0
2015-Feb-22 06:22N 34°10' E 135°09'0 0.1
2015-Feb-22 05:31N 34°10' E 135°09'0 0.1
2015-Feb-22 04:31N 34°10' E 135°09'0 0.0
2015-Feb-22 03:31N 34°10' E 135°09'0 0.0
2015-Feb-22 02:31N 34°10' E 135°09'0 0.0
2015-Feb-22 01:28N 34°10' E 135°09'0 0.0
2015-Feb-22 00:31N 34°10' E 135°09'0 0.0
2015-Feb-21 23:25N 34°10' E 135°09'0 0.0
2015-Feb-21 22:28N 34°10' E 135°09'0 0.1
2015-Feb-21 21:28N 34°10' E 135°09'0 0.0
2015-Feb-21 20:31N 34°10' E 135°09'0 0.0
2015-Feb-21 19:34N 34°10' E 135°09'0 0.0
2015-Feb-21 18:31N 34°10' E 135°09'0 0.0
2015-Feb-21 17:34N 34°10' E 135°09'0 0.1
2015-Feb-21 16:34N 34°10' E 135°09'2 1.5
2015-Feb-21 15:33N 34°09' E 135°07'1 0.2
2015-Feb-21 10:32N 34°08' E 135°07'0 0.4
2015-Feb-21 09:32N 34°08' E 135°07'0 0.1
2015-Feb-21 08:33N 34°08' E 135°07'5 5.1
2015-Feb-21 07:34N 34°13' E 135°08'0 0.2
2015-Feb-21 06:33N 34°13' E 135°09'0 0.0
2015-Feb-21 05:33N 34°13' E 135°09'0 0.0
2015-Feb-21 04:33N 34°13' E 135°09'3 3.2
2015-Feb-21 03:33N 34°11' E 135°05'4 3.9
2015-Feb-21 02:34N 34°08' E 135°04'6 6.3
2015-Feb-21 01:33N 34°09' E 135°11'0 0.0
2015-Feb-20 23:33N 34°09' E 135°11'0 0.2
2015-Feb-20 22:34N 34°09' E 135°11'2 2.2
2015-Feb-20 21:33N 34°09' E 135°08'0 0.0
2015-Feb-20 20:33N 34°09' E 135°08'0 0.0
2015-Feb-20 19:33N 34°09' E 135°08'0 0.0
2015-Feb-20 18:33N 34°09' E 135°08'0 0.0
2015-Feb-20 17:33N 34°09' E 135°08'0 0.0
2015-Feb-20 16:33N 34°09' E 135°08'0 0.0
2015-Feb-20 15:33N 34°09' E 135°08'0 0.0
2015-Feb-20 14:33N 34°09' E 135°08'0 0.0
2015-Feb-20 13:33N 34°09' E 135°08'0 0.0
2015-Feb-20 12:33N 34°09' E 135°08'0 0.0
2015-Feb-20 11:30N 34°09' E 135°08'0 0.0
2015-Feb-20 10:27N 34°09' E 135°08'1 1.3
2015-Feb-20 09:32N 34°08' E 135°07'1 0.3
2015-Feb-20 05:27N 34°07' E 135°07'3 2.8
2015-Feb-20 04:31N 34°10' E 135°08'0 0.0
2015-Feb-20 03:31N 34°10' E 135°08'0 0.0
2015-Feb-20 02:31N 34°10' E 135°08'0 0.0
2015-Feb-20 01:31N 34°10' E 135°08'0 0.0
2015-Feb-20 00:31N 34°10' E 135°08'0 0.0
2015-Feb-19 23:31N 34°10' E 135°08'0 0.0
2015-Feb-19 22:31N 34°10' E 135°08'0 0.0
2015-Feb-19 21:31N 34°10' E 135°08'0 0.0
2015-Feb-19 20:31N 34°10' E 135°08'0 0.1
2015-Feb-19 19:31N 34°10' E 135°08'0 0.0
2015-Feb-19 18:31N 34°10' E 135°08'0 0.0
2015-Feb-19 17:34N 34°10' E 135°08'0 0.0
2015-Feb-19 16:31N 34°10' E 135°08'0 0.0
2015-Feb-19 15:31N 34°10' E 135°08'0 0.0
2015-Feb-19 14:31N 34°10' E 135°08'0 0.1
2015-Feb-19 13:34N 34°10' E 135°08'0 0.0
2015-Feb-19 12:31N 34°10' E 135°08'0 0.0
2015-Feb-19 11:31N 34°10' E 135°08'0 0.0
2015-Feb-19 10:34N 34°10' E 135°08'5 5.1
2015-Feb-19 09:34N 34°12' E 135°03'1211.4
2015-Feb-19 08:33N 34°24' E 135°01'1212.6
2015-Feb-19 07:33N 34°36' E 135°02'  
Track history (hours):
 
Tides and Currents Weather Stations Pressure Air Temp Water Temp Dewpoint Dewpoint Depression Visibility Wind Speed Wind Dir Waves Ship Positions

Hikarimaru No.17

Last reported at 2015-Feb-28 15:31 UTC. Time now 2015-Feb-28 16:00 UTC.
Position N 34°10' E 135°08'.

Length 105 m; draft 5.5 m.

Type: Tanker. MMSI: 431000984.

Date/timePositionNaut miles runAvg speedWind from/ knotsBaromVisibWave heightAir tempDewpointWater temp
2015-Feb-28 15:31N 34°10' E 135°08'0 0.0
2015-Feb-28 14:28N 34°10' E 135°08'0 0.0
2015-Feb-28 13:31N 34°10' E 135°08'0 0.0
2015-Feb-28 12:31N 34°10' E 135°08'0 0.0
2015-Feb-28 11:31N 34°10' E 135°08'0 0.1
2015-Feb-28 10:31N 34°10' E 135°08'0 0.0
2015-Feb-28 09:31N 34°10' E 135°08'0 0.0
2015-Feb-28 08:31N 34°10' E 135°08'0 0.0
2015-Feb-28 07:31N 34°10' E 135°08'0 0.0
2015-Feb-28 06:31N 34°10' E 135°08'0 0.0
2015-Feb-28 05:31N 34°10' E 135°08'1 1.2
2015-Feb-28 04:34N 34°09' E 135°07'7 1.0
2015-Feb-27 21:33N 34°03' E 135°03'8 7.5
2015-Feb-27 20:31N 34°09' E 135°08'0 0.0
2015-Feb-27 19:31N 34°09' E 135°08'0 0.0
2015-Feb-27 18:31N 34°09' E 135°08'0 0.0
2015-Feb-27 17:31N 34°09' E 135°08'0 0.0
2015-Feb-27 16:28N 34°09' E 135°08'0 0.0
2015-Feb-27 15:31N 34°09' E 135°08'0 0.0
2015-Feb-27 14:31N 34°09' E 135°08'0 0.0
2015-Feb-27 13:31N 34°09' E 135°08'0 0.0
2015-Feb-27 12:28N 34°09' E 135°08'0 0.0
2015-Feb-27 11:31N 34°09' E 135°08'0 0.0
2015-Feb-27 10:31N 34°09' E 135°08'0 0.0
2015-Feb-27 09:31N 34°09' E 135°08'0 0.1
2015-Feb-27 08:31N 34°09' E 135°08'0 0.0
2015-Feb-27 07:28N 34°09' E 135°08'0 0.0
2015-Feb-27 06:34N 34°09' E 135°08'0 0.0
2015-Feb-27 05:31N 34°09' E 135°08'0 0.0
2015-Feb-27 04:31N 34°09' E 135°08'0 0.0
2015-Feb-27 03:31N 34°09' E 135°08'0 0.0
2015-Feb-27 02:31N 34°09' E 135°08'2 2.3
2015-Feb-27 01:34N 34°07' E 135°07'0 0.0
2015-Feb-27 00:34N 34°07' E 135°07'0 0.0
2015-Feb-26 23:33N 34°07' E 135°07'0 0.0
2015-Feb-26 22:33N 34°07' E 135°07'0 0.0
2015-Feb-26 21:32N 34°07' E 135°07'3 2.6
2015-Feb-26 20:33N 34°10' E 135°08'0 0.0
2015-Feb-26 19:33N 34°10' E 135°08'0 0.1
2015-Feb-26 18:33N 34°10' E 135°08'0 0.0
2015-Feb-26 17:33N 34°10' E 135°08'0 0.0
2015-Feb-26 16:33N 34°10' E 135°08'0 0.1
2015-Feb-26 15:33N 34°10' E 135°08'0 0.0
2015-Feb-26 14:33N 34°10' E 135°08'0 0.1
2015-Feb-26 13:33N 34°10' E 135°08'0 0.0
2015-Feb-26 12:33N 34°10' E 135°08'0 0.0
2015-Feb-26 11:33N 34°10' E 135°08'0 0.0
2015-Feb-26 10:33N 34°10' E 135°08'0 0.0
2015-Feb-26 09:33N 34°10' E 135°08'3 2.7
2015-Feb-26 08:33N 34°11' E 135°05'1212.0
2015-Feb-26 07:33N 34°22' E 134°59'1313.0
2015-Feb-26 06:33N 34°34' E 135°03'11 0.8
2015-Feb-25 16:15N 34°38' E 134°50'1014.5
2015-Feb-25 15:33N 34°37' E 135°02'1313.3
2015-Feb-25 14:33N 34°34' E 135°18'6 6.0
2015-Feb-25 13:33N 34°32' E 135°25'0 0.0
2015-Feb-25 12:33N 34°32' E 135°25'0 0.0
2015-Feb-25 11:33N 34°32' E 135°25'0 0.0
2015-Feb-25 10:33N 34°32' E 135°25'0 0.0
2015-Feb-25 09:33N 34°32' E 135°25'0 0.0
2015-Feb-25 08:33N 34°32' E 135°25'0 0.0
2015-Feb-25 07:33N 34°32' E 135°25'4 4.4
2015-Feb-25 06:33N 34°32' E 135°20'6 6.2
2015-Feb-25 05:33N 34°29' E 135°13'1311.6
2015-Feb-25 04:25N 34°20' E 135°02'1112.6
2015-Feb-25 03:34N 34°10' E 134°58'8 1.2
2015-Feb-24 20:33N 34°02' E 135°03'7 7.0
2015-Feb-24 19:31N 34°09' E 135°07'0 0.1
2015-Feb-24 18:31N 34°09' E 135°07'0 0.1
2015-Feb-24 17:31N 34°09' E 135°07'0 0.1
2015-Feb-24 16:31N 34°09' E 135°07'0 0.0
2015-Feb-24 15:31N 34°09' E 135°07'0 0.1
2015-Feb-24 14:31N 34°09' E 135°07'0 0.0
2015-Feb-24 13:31N 34°09' E 135°07'0 0.0
2015-Feb-24 12:31N 34°09' E 135°07'0 0.0
2015-Feb-24 11:31N 34°09' E 135°07'0 0.0
2015-Feb-24 10:28N 34°09' E 135°07'0 0.1
2015-Feb-24 09:31N 34°09' E 135°07'1 0.3
2015-Feb-24 04:34N 34°07' E 135°07'6 0.8
2015-Feb-23 21:32N 34°03' E 135°03'7 6.9
2015-Feb-23 20:32N 34°09' E 135°07'0 0.0
2015-Feb-23 19:32N 34°09' E 135°07'0 0.0
2015-Feb-23 18:32N 34°09' E 135°07'0 0.0
2015-Feb-23 17:32N 34°09' E 135°07'0 0.0
2015-Feb-23 16:32N 34°09' E 135°07'0 0.0
2015-Feb-23 15:29N 34°09' E 135°07'0 0.0
2015-Feb-23 14:29N 34°09' E 135°07'0 0.0
2015-Feb-23 13:32N 34°09' E 135°07'0 0.0
2015-Feb-23 12:32N 34°09' E 135°07'0 0.0
2015-Feb-23 11:32N 34°09' E 135°07'0 0.1
2015-Feb-23 10:32N 34°09' E 135°07'0 0.0
2015-Feb-23 09:32N 34°09' E 135°07'1 0.2
2015-Feb-23 04:33N 34°08' E 135°07'5 0.7
2015-Feb-22 21:32N 34°04' E 135°03'7 7.3
2015-Feb-22 20:31N 34°09' E 135°09'0 0.0
2015-Feb-22 19:31N 34°09' E 135°09'0 0.0
2015-Feb-22 18:31N 34°09' E 135°09'0 0.0
2015-Feb-22 17:25N 34°09' E 135°09'0 0.0
2015-Feb-22 16:28N 34°10' E 135°09'0 0.0
2015-Feb-22 15:31N 34°10' E 135°09'0 0.1
2015-Feb-22 14:31N 34°10' E 135°09'0 0.1
2015-Feb-22 13:31N 34°10' E 135°09'0 0.0
2015-Feb-22 12:31N 34°10' E 135°09'0 0.0
2015-Feb-22 11:31N 34°10' E 135°09'0 0.0
2015-Feb-22 10:31N 34°10' E 135°09'0 0.0
2015-Feb-22 09:33N 34°10' E 135°09'0 0.0
2015-Feb-22 08:31N 34°10' E 135°09'0 0.0
2015-Feb-22 07:31N 34°10' E 135°09'0 0.0
2015-Feb-22 06:22N 34°10' E 135°09'0 0.1
2015-Feb-22 05:31N 34°10' E 135°09'0 0.1
2015-Feb-22 04:31N 34°10' E 135°09'0 0.0
2015-Feb-22 03:31N 34°10' E 135°09'0 0.0
2015-Feb-22 02:31N 34°10' E 135°09'0 0.0
2015-Feb-22 01:28N 34°10' E 135°09'0 0.0
2015-Feb-22 00:31N 34°10' E 135°09'0 0.0
2015-Feb-21 23:25N 34°10' E 135°09'0 0.0
2015-Feb-21 22:28N 34°10' E 135°09'0 0.1
2015-Feb-21 21:28N 34°10' E 135°09'0 0.0
2015-Feb-21 20:31N 34°10' E 135°09'0 0.0
2015-Feb-21 19:34N 34°10' E 135°09'0 0.0
2015-Feb-21 18:31N 34°10' E 135°09'0 0.0
2015-Feb-21 17:34N 34°10' E 135°09'0 0.1
2015-Feb-21 16:34N 34°10' E 135°09'2 1.5
2015-Feb-21 15:33N 34°09' E 135°07'1 0.2
2015-Feb-21 10:32N 34°08' E 135°07'0 0.4
2015-Feb-21 09:32N 34°08' E 135°07'0 0.1
2015-Feb-21 08:33N 34°08' E 135°07'5 5.1
2015-Feb-21 07:34N 34°13' E 135°08'0 0.2
2015-Feb-21 06:33N 34°13' E 135°09'0 0.0
2015-Feb-21 05:33N 34°13' E 135°09'0 0.0
2015-Feb-21 04:33N 34°13' E 135°09'3 3.2
2015-Feb-21 03:33N 34°11' E 135°05'4 3.9
2015-Feb-21 02:34N 34°08' E 135°04'6 6.3
2015-Feb-21 01:33N 34°09' E 135°11'0 0.0
2015-Feb-20 23:33N 34°09' E 135°11'0 0.2
2015-Feb-20 22:34N 34°09' E 135°11'2 2.2
2015-Feb-20 21:33N 34°09' E 135°08'0 0.0
2015-Feb-20 20:33N 34°09' E 135°08'0 0.0
2015-Feb-20 19:33N 34°09' E 135°08'0 0.0
2015-Feb-20 18:33N 34°09' E 135°08'0 0.0
2015-Feb-20 17:33N 34°09' E 135°08'0 0.0
2015-Feb-20 16:33N 34°09' E 135°08'0 0.0
2015-Feb-20 15:33N 34°09' E 135°08'0 0.0
2015-Feb-20 14:33N 34°09' E 135°08'0 0.0
2015-Feb-20 13:33N 34°09' E 135°08'0 0.0
2015-Feb-20 12:33N 34°09' E 135°08'0 0.0
2015-Feb-20 11:30N 34°09' E 135°08'0 0.0
2015-Feb-20 10:27N 34°09' E 135°08'1 1.3
2015-Feb-20 09:32N 34°08' E 135°07'1 0.3
2015-Feb-20 05:27N 34°07' E 135°07'3 2.8
2015-Feb-20 04:31N 34°10' E 135°08'0 0.0
2015-Feb-20 03:31N 34°10' E 135°08'0 0.0
2015-Feb-20 02:31N 34°10' E 135°08'0 0.0
2015-Feb-20 01:31N 34°10' E 135°08'0 0.0
2015-Feb-20 00:31N 34°10' E 135°08'0 0.0
2015-Feb-19 23:31N 34°10' E 135°08'0 0.0
2015-Feb-19 22:31N 34°10' E 135°08'0 0.0
2015-Feb-19 21:31N 34°10' E 135°08'0 0.0
2015-Feb-19 20:31N 34°10' E 135°08'0 0.1
2015-Feb-19 19:31N 34°10' E 135°08'0 0.0
2015-Feb-19 18:31N 34°10' E 135°08'0 0.0
2015-Feb-19 17:34N 34°10' E 135°08'0 0.0
2015-Feb-19 16:31N 34°10' E 135°08'0 0.0
2015-Feb-19 15:31N 34°10' E 135°08'0 0.0
2015-Feb-19 14:31N 34°10' E 135°08'0 0.1
2015-Feb-19 13:34N 34°10' E 135°08'0 0.0
2015-Feb-19 12:31N 34°10' E 135°08'0 0.0
2015-Feb-19 11:31N 34°10' E 135°08'0 0.0
2015-Feb-19 10:34N 34°10' E 135°08'5 5.1
2015-Feb-19 09:34N 34°12' E 135°03'1211.4
2015-Feb-19 08:33N 34°24' E 135°01'1212.6
2015-Feb-19 07:33N 34°36' E 135°02'  

Dump ship's entire track history